METAR Data
IDs: Format: Raw Decoded Include TAF

Data at: 1330 UTC 17 Sep 2019

NZAA 171300Z AUTO 20011KT 9999 BKN049/// 13/07 Q1025 NOSIG
NZAA 171230Z AUTO 19007KT 9999 OVC043/// 13/08 Q1025 NOSIG
NZAA 171200Z AUTO 19010KT 9999 FEW031/// OVC039/// 13/09 Q1025 NOSIG
NZAA 171130Z AUTO 19008KT 9999 FEW028/// OVC034/// 13/09 Q1025 NOSIG
NZAA 171100Z AUTO 20010KT 9999 OVC033/// 13/09 Q1025 NOSIG

TAF NZAA 171102Z 1712/1812 20010KT 9999 SCT040
  BECMG 1718/1720 14005KT
  BECMG 1802/1804 22010KT
  BECMG 1808/1810 14005KT